createdAt,value
2019-02-11T00:00:25.953Z,5.11
2019-02-11T00:02:54.982Z,5.00
2019-02-11T00:05:24.347Z,5.02
2019-02-11T00:07:53.423Z,5.01
2019-02-11T00:10:22.432Z,4.98
2019-02-11T00:12:51.445Z,5.07
2019-02-11T00:15:20.460Z,4.98
2019-02-11T00:17:49.674Z,4.92
2019-02-11T00:20:18.797Z,4.98
2019-02-11T00:22:47.803Z,4.99
2019-02-11T00:25:17.556Z,4.83
2019-02-11T00:27:46.575Z,4.98
2019-02-11T00:30:15.584Z,4.88
2019-02-11T00:32:44.622Z,4.98
2019-02-11T00:35:13.658Z,5.03
2019-02-11T00:37:43.228Z,4.83
2019-02-11T00:40:12.222Z,4.73
2019-02-11T00:42:41.262Z,4.70
2019-02-11T00:45:10.592Z,4.66
2019-02-11T00:47:39.624Z,4.62
2019-02-11T00:50:09.970Z,4.67
2019-02-11T00:52:38.969Z,4.79
2019-02-11T00:55:08.049Z,4.74
2019-02-11T00:57:37.062Z,4.87
2019-02-11T01:00:07.927Z,4.81
2019-02-11T01:02:37.260Z,4.78
2019-02-11T01:05:06.826Z,4.74
2019-02-11T01:07:35.848Z,4.77
2019-02-11T01:10:06.107Z,4.81
2019-02-11T01:12:35.206Z,4.75
2019-02-11T01:15:05.800Z,4.79
2019-02-11T01:17:35.528Z,4.79
2019-02-11T01:20:05.228Z,4.80
2019-02-11T01:22:34.239Z,4.74
2019-02-11T01:25:03.590Z,4.65
2019-02-11T01:27:32.988Z,4.67
2019-02-11T01:30:02.692Z,4.69
2019-02-11T01:32:31.846Z,4.56
2019-02-11T01:35:01.206Z,4.51
2019-02-11T01:37:30.353Z,4.60
2019-02-11T01:39:59.704Z,4.46
2019-02-11T01:42:28.780Z,4.37
2019-02-11T01:44:57.796Z,4.35
2019-02-11T01:47:28.120Z,4.21
2019-02-11T01:49:57.507Z,4.16
2019-02-11T01:52:26.502Z,4.07
2019-02-11T01:54:55.844Z,4.14
2019-02-11T01:57:24.862Z,4.13
2019-02-11T01:59:53.846Z,4.05
2019-02-11T02:02:22.834Z,3.92
2019-02-11T02:04:52.404Z,4.03
2019-02-11T02:07:21.655Z,4.02
2019-02-11T02:09:50.732Z,3.95
2019-02-11T02:12:19.764Z,4.00
2019-02-11T02:14:48.765Z,4.04
2019-02-11T02:17:17.747Z,4.01
2019-02-11T02:19:46.763Z,3.85
2019-02-11T02:22:15.754Z,3.75
2019-02-11T02:24:45.106Z,3.97
2019-02-11T02:27:14.109Z,3.79
2019-02-11T02:29:43.176Z,3.93
2019-02-11T02:32:12.450Z,3.82
2019-02-11T02:34:41.570Z,3.66
2019-02-11T02:37:10.634Z,3.77
2019-02-11T02:39:39.684Z,3.70
2019-02-11T02:42:08.726Z,3.79
2019-02-11T02:44:37.866Z,3.86
2019-02-11T02:47:07.350Z,3.88
2019-02-11T02:49:36.821Z,3.84
2019-02-11T02:52:05.862Z,3.77
2019-02-11T02:54:35.152Z,3.84
2019-02-11T02:57:04.225Z,3.75
2019-02-11T02:59:33.922Z,3.62
2019-02-11T03:02:03.242Z,3.61
2019-02-11T03:04:32.633Z,3.69
2019-02-11T03:07:02.039Z,3.57
2019-02-11T03:09:31.464Z,3.58
2019-02-11T03:12:00.534Z,3.42
2019-02-11T03:14:29.524Z,3.28
2019-02-11T03:16:58.769Z,3.33
2019-02-11T03:19:28.866Z,3.38
2019-02-11T03:21:58.032Z,3.39
2019-02-11T03:24:27.044Z,3.29
2019-02-11T03:26:56.095Z,3.30
2019-02-11T03:29:25.577Z,3.36
2019-02-11T03:31:54.902Z,3.44
2019-02-11T03:34:24.275Z,3.35
2019-02-11T03:36:53.342Z,3.33
2019-02-11T03:39:22.425Z,3.39
2019-02-11T03:41:51.432Z,3.33
2019-02-11T03:44:20.516Z,3.22
2019-02-11T03:46:49.863Z,3.25
2019-02-11T03:49:18.989Z,3.23
2019-02-11T03:51:47.990Z,3.15
2019-02-11T03:54:17.055Z,3.06
2019-02-11T03:56:46.142Z,3.06
2019-02-11T03:59:15.355Z,2.97
2019-02-11T04:01:44.743Z,2.97
2019-02-11T04:04:13.854Z,2.98
2019-02-11T04:06:43.667Z,2.93
2019-02-11T04:09:12.994Z,2.91
2019-02-11T04:11:42.396Z,2.89
2019-02-11T04:14:11.467Z,3.03
2019-02-11T04:16:40.671Z,3.20
2019-02-11T04:19:09.735Z,3.22
2019-02-11T04:21:38.748Z,3.28
2019-02-11T04:24:08.464Z,3.34
2019-02-11T04:26:37.564Z,3.39
2019-02-11T04:29:07.001Z,3.42
2019-02-11T04:31:36.378Z,3.61
2019-02-11T04:34:05.748Z,3.76
2019-02-11T04:36:34.773Z,3.65
2019-02-11T04:39:06.270Z,3.71
2019-02-11T04:41:35.289Z,3.61
2019-02-11T04:44:04.280Z,3.46
2019-02-11T04:46:33.314Z,3.49
2019-02-11T04:49:03.086Z,3.46
2019-02-11T04:51:32.638Z,3.44
2019-02-11T04:54:02.009Z,3.35
2019-02-11T04:56:31.042Z,3.33
2019-02-11T04:59:00.038Z,3.40
2019-02-11T05:01:29.141Z,3.33
2019-02-11T05:03:58.166Z,3.33
2019-02-11T05:06:27.326Z,3.32
2019-02-11T05:08:56.358Z,3.14
2019-02-11T05:11:25.384Z,3.22
2019-02-11T05:13:54.872Z,3.26
2019-02-11T05:16:23.993Z,3.06
2019-02-11T05:18:53.017Z,3.13
2019-02-11T05:21:22.986Z,3.22
2019-02-11T05:23:52.835Z,3.12
2019-02-11T05:26:22.889Z,2.98
2019-02-11T05:28:51.971Z,3.03
2019-02-11T05:31:21.230Z,2.96
2019-02-11T05:33:50.262Z,2.98
2019-02-11T05:36:19.408Z,2.95
2019-02-11T05:38:49.066Z,2.89
2019-02-11T05:41:18.067Z,2.91
2019-02-11T05:43:47.180Z,2.81
2019-02-11T05:46:16.235Z,2.78
2019-02-11T05:48:46.314Z,2.89
2019-02-11T05:51:15.340Z,2.82
2019-02-11T05:53:45.587Z,2.82
2019-02-11T05:56:15.128Z,2.79
2019-02-11T05:58:45.986Z,2.81
2019-02-11T06:01:15.811Z,3.02
2019-02-11T06:03:45.071Z,2.91
2019-02-11T06:06:14.349Z,2.95
2019-02-11T06:08:44.625Z,3.07
2019-02-11T06:11:14.073Z,2.98
2019-02-11T06:13:43.364Z,2.93
2019-02-11T06:16:12.570Z,2.97
2019-02-11T06:18:42.060Z,2.89
2019-02-11T06:21:11.521Z,2.81
2019-02-11T06:23:40.646Z,2.61
2019-02-11T06:26:09.639Z,2.77
2019-02-11T06:28:39.053Z,2.73
2019-02-11T06:31:08.116Z,2.62
2019-02-11T06:33:37.203Z,2.46
2019-02-11T06:36:12.303Z,2.37
2019-02-11T06:38:38.044Z,2.32
2019-02-11T06:41:07.091Z,2.26
2019-02-11T06:43:36.229Z,2.19
2019-02-11T06:46:05.638Z,2.13
2019-02-11T06:48:34.651Z,2.09
2019-02-11T06:51:03.979Z,2.04
2019-02-11T06:53:32.984Z,1.98
2019-02-11T06:56:02.353Z,1.98
2019-02-11T06:58:31.834Z,1.91
2019-02-11T07:01:01.150Z,1.85
2019-02-11T07:03:30.557Z,1.81
2019-02-11T07:05:59.980Z,1.76
2019-02-11T07:08:29.187Z,1.71
2019-02-11T07:10:58.262Z,1.62
2019-02-11T07:13:27.623Z,1.58
2019-02-11T07:15:56.659Z,1.63
2019-02-11T07:18:26.014Z,1.74
2019-02-11T07:20:55.019Z,1.75
2019-02-11T07:23:24.879Z,2.01
2019-02-11T07:25:53.890Z,2.12
2019-02-11T07:28:23.274Z,2.18
2019-02-11T07:30:52.281Z,2.39
2019-02-11T07:33:21.332Z,2.45
2019-02-11T07:35:50.380Z,2.55
2019-02-11T07:38:19.437Z,2.60
2019-02-11T07:40:48.853Z,2.51
2019-02-11T07:43:28.392Z,2.57
2019-02-11T07:46:07.872Z,2.68
2019-02-11T07:48:37.264Z,2.72
2019-02-11T07:51:06.278Z,2.94
2019-02-11T07:53:35.321Z,3.09
2019-02-11T07:56:04.314Z,3.11
2019-02-11T07:58:33.338Z,3.27
2019-02-11T08:01:02.708Z,3.38
2019-02-11T08:03:31.761Z,3.44
2019-02-11T08:06:00.790Z,3.58
2019-02-11T08:08:29.794Z,3.65
2019-02-11T08:10:59.134Z,3.71
2019-02-11T08:13:28.161Z,3.72
2019-02-11T08:15:57.189Z,3.75
2019-02-11T08:18:26.227Z,3.69
2019-02-11T08:20:55.241Z,3.71
2019-02-11T08:23:24.239Z,3.80
2019-02-11T08:25:53.541Z,3.71
2019-02-11T08:28:22.907Z,3.77
2019-02-11T08:30:52.298Z,3.84
2019-02-11T08:33:21.304Z,3.82
2019-02-11T08:35:50.392Z,4.07
2019-02-11T08:38:19.887Z,4.15
2019-02-11T08:40:48.961Z,4.11
2019-02-11T08:43:17.986Z,4.45
2019-02-11T08:45:47.442Z,4.49
2019-02-11T08:48:16.934Z,4.61
2019-02-11T08:50:45.967Z,4.86
2019-02-11T08:53:14.984Z,5.19
2019-02-11T08:55:43.990Z,5.38
2019-02-11T08:58:13.015Z,6.40
2019-02-11T09:00:42.034Z,7.27
2019-02-11T09:03:11.058Z,7.70
2019-02-11T09:05:40.134Z,8.64
2019-02-11T09:08:09.526Z,8.99
2019-02-11T09:10:38.810Z,9.71
2019-02-11T09:13:07.843Z,10.49
2019-02-11T09:15:37.372Z,10.95
2019-02-11T09:18:06.483Z,12.00
2019-02-11T09:20:35.526Z,12.38
2019-02-11T09:23:05.426Z,13.10
2019-02-11T09:25:34.479Z,14.26
2019-02-11T09:28:03.508Z,14.15
2019-02-11T09:30:32.536Z,14.44
2019-02-11T09:33:01.522Z,15.12
2019-02-11T09:35:30.555Z,15.37
2019-02-11T09:37:59.594Z,15.39
2019-02-11T09:40:28.603Z,15.00
2019-02-11T09:42:57.703Z,12.59
2019-02-11T09:45:26.987Z,12.06
2019-02-11T09:47:56.023Z,11.79
2019-02-11T09:50:31.295Z,12.52
2019-02-11T09:53:00.359Z,14.25
2019-02-11T09:55:31.147Z,15.51
2019-02-11T09:58:00.200Z,18.04
2019-02-11T10:00:29.733Z,18.96
2019-02-11T10:02:59.038Z,20.05
2019-02-11T10:05:28.088Z,19.35
2019-02-11T10:07:57.123Z,17.53
2019-02-11T10:10:26.150Z,16.12
2019-02-11T10:12:55.563Z,14.27
2019-02-11T10:15:24.676Z,13.45
2019-02-11T10:17:53.707Z,12.82
2019-02-11T10:20:22.773Z,12.21
2019-02-11T10:22:52.226Z,12.09
2019-02-11T10:25:23.509Z,11.11
2019-02-11T10:27:53.698Z,10.77
2019-02-11T10:30:22.715Z,10.47
2019-02-11T10:32:51.712Z,9.86
2019-02-11T10:35:21.082Z,9.49
2019-02-11T10:37:50.389Z,9.35
2019-02-11T10:40:19.431Z,9.29
2019-02-11T10:42:48.490Z,9.19
2019-02-11T10:45:17.870Z,8.98
2019-02-11T10:47:47.365Z,9.10
2019-02-11T10:50:17.373Z,9.10
2019-02-11T10:52:46.447Z,9.30
2019-02-11T10:55:16.193Z,9.33
2019-02-11T10:57:45.585Z,9.33
2019-02-11T11:00:20.014Z,9.26
2019-02-11T11:02:49.363Z,9.19
2019-02-11T11:05:18.449Z,9.28
2019-02-11T11:07:47.551Z,9.24
2019-02-11T11:10:26.105Z,9.16
2019-02-11T11:12:55.156Z,9.11
2019-02-11T11:15:24.361Z,9.06
2019-02-11T11:17:53.742Z,9.06
2019-02-11T11:20:23.139Z,9.13
2019-02-11T11:22:52.125Z,9.13
2019-02-11T11:25:21.188Z,9.16
2019-02-11T11:27:50.231Z,9.01
2019-02-11T11:30:20.247Z,9.04
2019-02-11T11:32:49.375Z,8.92
2019-02-11T11:35:18.669Z,8.56
2019-02-11T11:37:47.791Z,8.55
2019-02-11T11:40:17.601Z,8.52
2019-02-11T11:42:46.596Z,8.44
2019-02-11T11:45:17.012Z,8.30
2019-02-11T11:47:46.035Z,8.43
2019-02-11T11:50:16.373Z,8.53
2019-02-11T11:52:45.416Z,8.89
2019-02-11T11:55:15.599Z,11.36
2019-02-11T11:57:45.000Z,11.36
2019-02-11T12:00:20.581Z,12.20
2019-02-11T12:03:01.424Z,12.56
2019-02-11T12:05:20.682Z,13.38
2019-02-11T12:07:51.666Z,13.95
2019-02-11T12:10:20.710Z,14.42
2019-02-11T12:12:49.758Z,14.51
2019-02-11T12:15:20.828Z,14.66
2019-02-11T12:17:50.148Z,15.12
2019-02-11T12:20:19.235Z,15.86
2019-02-11T12:22:48.753Z,15.32
2019-02-11T12:25:18.021Z,15.65
2019-02-11T12:27:47.142Z,14.30
2019-02-11T12:30:18.566Z,13.93
2019-02-11T12:32:48.167Z,15.01
2019-02-11T12:35:17.199Z,14.17
2019-02-11T12:37:46.371Z,14.88
2019-02-11T12:40:15.695Z,14.44
2019-02-11T12:42:44.737Z,14.80
2019-02-11T12:45:19.060Z,15.73
2019-02-11T12:47:48.151Z,16.50
2019-02-11T12:50:17.738Z,16.54
2019-02-11T12:52:47.262Z,15.17
2019-02-11T12:55:16.693Z,15.32
2019-02-11T12:57:46.025Z,15.77
2019-02-11T13:00:17.901Z,15.05
2019-02-11T13:02:47.947Z,14.28
2019-02-11T13:05:21.955Z,14.11
2019-02-11T13:07:48.782Z,12.93
2019-02-11T13:10:18.456Z,12.34
2019-02-11T13:12:47.480Z,11.83
2019-02-11T13:15:42.029Z,11.19
2019-02-11T13:17:47.342Z,10.75
2019-02-11T13:20:16.552Z,11.38
2019-02-11T13:22:46.451Z,12.80
2019-02-11T13:25:16.424Z,12.74
2019-02-11T13:27:45.548Z,12.24
2019-02-11T13:30:17.051Z,12.18
2019-02-11T13:32:46.085Z,12.84
2019-02-11T13:35:15.179Z,14.39
2019-02-11T13:37:45.024Z,15.51
2019-02-11T13:40:15.024Z,16.71
2019-02-11T13:42:44.045Z,16.68
2019-02-11T13:45:15.077Z,16.82
2019-02-11T13:47:53.808Z,17.00
2019-02-11T13:50:18.195Z,16.83
2019-02-11T13:52:47.830Z,17.14
2019-02-11T13:55:17.167Z,17.78
2019-02-11T13:57:46.331Z,18.29
2019-02-11T14:00:22.363Z,18.31
2019-02-11T14:02:53.573Z,18.86
2019-02-11T14:05:22.847Z,18.21
2019-02-11T14:07:52.293Z,17.25
2019-02-11T14:10:21.320Z,15.73
2019-02-11T14:12:51.185Z,14.12
2019-02-11T14:15:21.565Z,13.43
2019-02-11T14:18:09.481Z,12.87
2019-02-11T14:20:25.845Z,12.03
2019-02-11T14:22:55.215Z,11.72
2019-02-11T14:25:40.741Z,11.78
2019-02-11T14:27:55.075Z,11.31
2019-02-11T14:30:24.523Z,10.78
2019-02-11T14:32:53.548Z,10.78
2019-02-11T14:35:23.012Z,10.66
2019-02-11T14:37:52.111Z,10.59
2019-02-11T14:40:21.210Z,10.61
2019-02-11T14:42:50.205Z,10.71
2019-02-11T14:45:19.292Z,10.57
2019-02-11T14:47:48.362Z,10.32
2019-02-11T14:50:17.389Z,10.41
2019-02-11T14:52:46.456Z,10.34
2019-02-11T14:55:15.895Z,10.14
2019-02-11T14:57:44.901Z,10.30
2019-02-11T15:00:18.292Z,10.19
2019-02-11T15:02:47.305Z,10.05
2019-02-11T15:05:16.751Z,10.28
2019-02-11T15:07:46.260Z,10.14
2019-02-11T15:10:15.842Z,10.11
2019-02-11T15:12:45.201Z,10.13
2019-02-11T15:15:14.472Z,9.96
2019-02-11T15:17:43.846Z,9.74
2019-02-11T15:20:14.277Z,9.76
2019-02-11T15:22:43.260Z,9.81
2019-02-11T15:25:14.030Z,9.67
2019-02-11T15:27:43.298Z,9.68
2019-02-11T15:30:17.507Z,9.57
2019-02-11T15:32:46.520Z,9.36
2019-02-11T15:35:15.960Z,9.30
2019-02-11T15:37:45.246Z,9.37
2019-02-11T15:40:17.120Z,9.22
2019-02-11T15:42:46.130Z,9.22
2019-02-11T15:45:15.500Z,9.29
2019-02-11T15:47:44.560Z,9.29
2019-02-11T15:50:14.281Z,9.27
2019-02-11T15:52:43.322Z,9.25
2019-02-11T15:55:14.861Z,9.25
2019-02-11T15:57:43.884Z,9.12
2019-02-11T16:00:15.400Z,9.02
2019-02-11T16:02:44.736Z,8.96
2019-02-11T16:05:16.746Z,8.81
2019-02-11T16:07:44.778Z,8.73
2019-02-11T16:10:15.648Z,8.78
2019-02-11T16:12:44.702Z,8.67
2019-02-11T16:15:13.880Z,8.57
2019-02-11T16:17:43.191Z,8.41
2019-02-11T16:20:14.335Z,8.36
2019-02-11T16:22:43.385Z,8.20
2019-02-11T16:25:12.630Z,8.22
2019-02-11T16:27:41.730Z,8.10
2019-02-11T16:30:14.174Z,8.11
2019-02-11T16:32:43.262Z,8.08
2019-02-11T16:35:12.979Z,8.13
2019-02-11T16:37:41.998Z,8.28
2019-02-11T16:40:19.771Z,8.14
2019-02-11T16:42:48.840Z,8.24
2019-02-11T16:45:17.846Z,8.21
2019-02-11T16:47:46.975Z,8.06
2019-02-11T16:50:16.011Z,8.05
2019-02-11T16:52:45.440Z,8.11
2019-02-11T16:55:14.634Z,8.11
2019-02-11T16:57:43.675Z,8.08
2019-02-11T17:00:14.206Z,8.03
2019-02-11T17:02:43.608Z,7.95
2019-02-11T17:05:12.737Z,7.83
2019-02-11T17:07:42.474Z,7.74
2019-02-11T17:10:12.663Z,7.61
2019-02-11T17:12:41.736Z,7.46
2019-02-11T17:15:12.858Z,7.26
2019-02-11T17:17:41.904Z,7.07
2019-02-11T17:20:11.572Z,6.98
2019-02-11T17:22:40.579Z,6.90
2019-02-11T17:25:10.232Z,6.80
2019-02-11T17:27:39.248Z,6.74
2019-02-11T17:30:11.361Z,6.63
2019-02-11T17:32:40.437Z,6.56
2019-02-11T17:35:09.859Z,6.58
2019-02-11T17:37:39.244Z,6.67
2019-02-11T17:40:09.394Z,6.76
2019-02-11T17:42:38.431Z,6.79
2019-02-11T17:45:10.169Z,6.84
2019-02-11T17:47:39.287Z,6.83
2019-02-11T17:50:09.386Z,6.87
2019-02-11T17:52:38.398Z,6.94
2019-02-11T17:55:09.114Z,6.97
2019-02-11T17:57:38.180Z,6.96
2019-02-11T18:00:11.710Z,6.95
2019-02-11T18:02:40.727Z,6.93
2019-02-11T18:05:09.793Z,6.90
2019-02-11T18:07:38.866Z,6.88
2019-02-11T18:10:08.227Z,6.86
2019-02-11T18:12:37.449Z,6.81
2019-02-11T18:15:07.744Z,6.75
2019-02-11T18:17:36.765Z,6.78
2019-02-11T18:20:06.212Z,6.75
2019-02-11T18:22:35.638Z,6.73
2019-02-11T18:25:05.324Z,6.72
2019-02-11T18:27:34.681Z,6.70
2019-02-11T18:30:05.841Z,6.61
2019-02-11T18:32:35.438Z,6.48
2019-02-11T18:35:05.500Z,6.42
2019-02-11T18:37:34.870Z,6.32
2019-02-11T18:40:04.192Z,6.22
2019-02-11T18:42:33.443Z,6.14
2019-02-11T18:45:02.864Z,6.08
2019-02-11T18:47:31.969Z,5.98
2019-02-11T18:50:01.030Z,5.95
2019-02-11T18:52:30.397Z,5.90
2019-02-11T18:54:59.475Z,5.86
2019-02-11T18:57:28.955Z,5.79
2019-02-11T18:59:58.036Z,5.73
2019-02-11T19:02:27.350Z,5.66
2019-02-11T19:04:56.364Z,5.59
2019-02-11T19:07:25.533Z,5.49
2019-02-11T19:09:55.167Z,5.47
2019-02-11T19:12:24.761Z,5.39
2019-02-11T19:14:54.162Z,5.38
2019-02-11T19:17:41.090Z,5.29
2019-02-11T19:20:11.844Z,5.26
2019-02-11T19:22:41.240Z,5.20
2019-02-11T19:25:11.706Z,5.15
2019-02-11T19:27:41.462Z,5.12
2019-02-11T19:30:16.512Z,5.05
2019-02-11T19:32:45.544Z,5.03
2019-02-11T19:35:15.358Z,4.98
2019-02-11T19:37:44.738Z,5.04
2019-02-11T19:40:14.653Z,5.20
2019-02-11T19:42:43.695Z,5.18
2019-02-11T19:45:14.640Z,5.19
2019-02-11T19:47:43.816Z,5.21
2019-02-11T19:50:14.411Z,5.09
2019-02-11T19:52:43.699Z,5.08
2019-02-11T19:55:13.182Z,5.02
2019-02-11T19:57:42.225Z,4.97
2019-02-11T20:00:15.531Z,4.86
2019-02-11T20:02:45.202Z,4.71
2019-02-11T20:05:14.520Z,4.63
2019-02-11T20:07:43.592Z,4.70
2019-02-11T20:10:13.257Z,4.73
2019-02-11T20:12:42.288Z,4.73
2019-02-11T20:15:13.588Z,4.79
2019-02-11T20:17:43.221Z,4.73
2019-02-11T20:20:14.006Z,4.77
2019-02-11T20:22:43.055Z,4.73
2019-02-11T20:25:13.563Z,4.66
2019-02-11T20:27:43.412Z,4.64
2019-02-11T20:30:14.595Z,4.61
2019-02-11T20:32:43.904Z,4.53
2019-02-11T20:35:13.310Z,4.48
2019-02-11T20:37:42.451Z,4.44
2019-02-11T20:40:13.663Z,4.43
2019-02-11T20:42:42.782Z,4.40
2019-02-11T20:45:14.362Z,4.39
2019-02-11T20:47:43.685Z,4.36
2019-02-11T20:50:12.988Z,4.34
2019-02-11T20:52:42.071Z,4.37
2019-02-11T20:55:12.139Z,4.44
2019-02-11T20:57:41.204Z,4.18
2019-02-11T21:00:16.919Z,4.01
2019-02-11T21:02:46.071Z,3.87
2019-02-11T21:05:15.770Z,3.93
2019-02-11T21:07:45.210Z,4.00
2019-02-11T21:10:15.156Z,3.91
2019-02-11T21:12:44.617Z,4.05
2019-02-11T21:15:14.299Z,4.20
2019-02-11T21:17:43.341Z,4.02
2019-02-11T21:20:18.506Z,3.89
2019-02-11T21:22:47.869Z,4.05
2019-02-11T21:25:16.978Z,4.08
2019-02-11T21:27:46.429Z,3.98
2019-02-11T21:30:15.824Z,3.91
2019-02-11T21:32:45.374Z,3.87
2019-02-11T21:35:14.671Z,3.87
2019-02-11T21:37:43.980Z,3.78
2019-02-11T21:40:13.434Z,3.77
2019-02-11T21:42:44.509Z,3.75
2019-02-11T21:45:13.904Z,3.77
2019-02-11T21:47:42.964Z,3.83
2019-02-11T21:50:13.277Z,3.76
2019-02-11T21:52:42.626Z,3.68
2019-02-11T21:55:12.607Z,3.62
2019-02-11T21:57:41.661Z,3.62
2019-02-11T22:00:13.091Z,3.63
2019-02-11T22:02:42.204Z,3.63
2019-02-11T22:05:11.250Z,3.49
2019-02-11T22:07:40.267Z,3.37
2019-02-11T22:10:11.146Z,3.28
2019-02-11T22:12:40.195Z,3.25
2019-02-11T22:15:10.033Z,3.20
2019-02-11T22:17:39.101Z,3.23
2019-02-11T22:20:11.671Z,3.28
2019-02-11T22:22:40.803Z,3.18
2019-02-11T22:25:10.425Z,2.99
2019-02-11T22:27:40.077Z,2.98
2019-02-11T22:30:12.414Z,2.95
2019-02-11T22:32:42.094Z,2.98
2019-02-11T22:35:11.569Z,2.92
2019-02-11T22:37:40.975Z,2.89
2019-02-11T22:40:11.111Z,2.83
2019-02-11T22:42:40.140Z,2.79
2019-02-11T22:45:11.314Z,2.76
2019-02-11T22:47:40.528Z,2.70
2019-02-11T22:50:10.386Z,2.73
2019-02-11T22:52:39.758Z,2.70
2019-02-11T22:55:10.716Z,2.63
2019-02-11T22:57:40.464Z,2.58
2019-02-11T23:00:20.620Z,2.52
2019-02-11T23:02:49.980Z,2.46
2019-02-11T23:05:19.034Z,2.51
2019-02-11T23:07:48.056Z,2.49
2019-02-11T23:10:17.464Z,2.44
2019-02-11T23:12:46.498Z,2.36
2019-02-11T23:15:15.590Z,2.37
2019-02-11T23:17:44.900Z,2.32
2019-02-11T23:20:14.228Z,2.29
2019-02-11T23:22:43.326Z,2.31
2019-02-11T23:25:12.311Z,2.30
2019-02-11T23:27:41.643Z,2.21
2019-02-11T23:30:13.446Z,2.18
2019-02-11T23:32:41.846Z,2.13
2019-02-11T23:35:11.184Z,2.05
2019-02-11T23:37:40.196Z,2.05
2019-02-11T23:40:09.905Z,2.09
2019-02-11T23:42:38.908Z,2.12
2019-02-11T23:45:08.462Z,2.05
2019-02-11T23:47:37.532Z,2.03
2019-02-11T23:50:06.723Z,2.02
2019-02-11T23:52:35.750Z,2.04
2019-02-11T23:55:05.262Z,2.00
2019-02-11T23:57:34.713Z,2.01
